Time;durP1;ratioP1;P1;durP2;ratioP2;P2;SDS_P1;SDS_P2;PMS_P1;PMS_P2;Temp;Humidity;BMP_temperature;BMP_pressure;BME280_temperature;BME280_humidity;BME280_pressure;Samples;Min_cycle;Max_cycle;Signal;HPM_P1;HPM_P2
2023/02/01 00:00:46;;;;;;;3.40;1.60;;;11.60;99.90;;;11.44;56.11;101617.81;4912760;28;101667;-56
2023/02/01 00:03:12;;;;;;;1.73;1.27;;;11.70;99.90;;;11.52;55.51;101616.69;4917723;28;101074;-57
2023/02/01 00:05:38;;;;;;;14.60;2.03;;;11.80;99.90;;;11.54;55.67;101635.16;4911283;28;97444;-57
2023/02/01 00:08:05;;;;;;;3.23;1.53;;;11.80;99.90;;;11.37;57.08;101632.03;4920480;28;105905;-57
2023/02/01 00:10:30;;;;;;;3.93;1.60;;;11.60;99.90;;;11.30;56.87;101636.63;4902381;28;97402;-56
2023/02/01 00:12:56;;;;;;;2.17;1.37;;;11.50;99.90;;;11.30;56.70;101636.63;4898120;28;100205;-54
2023/02/01 00:15:22;;;;;;;1.67;0.97;;;11.50;99.90;;;11.39;56.53;101646.94;4915917;28;103779;-54
2023/02/01 00:17:54;;;;;;;4.73;1.80;;;11.50;99.90;;;11.35;56.28;101639.13;4914293;28;97540;-55
2023/02/01 00:20:19;;;;;;;2.57;1.33;;;11.50;99.90;;;11.39;56.24;101646.94;4917097;28;97194;-53
2023/02/01 00:22:45;;;;;;;6.73;1.53;;;11.60;99.90;;;11.47;55.52;101634.44;4916705;28;100284;-55
2023/02/01 00:25:11;;;;;;;4.37;1.30;;;11.70;99.90;;;11.58;55.61;101636.84;4913736;28;104128;-57
2023/02/01 00:27:36;;;;;;;1.40;1.07;;;11.80;99.90;;;11.72;54.63;101633.84;4872530;28;101265;-61
2023/02/01 00:30:03;;;;;;;1.47;0.90;;;11.90;99.90;;;11.76;55.28;101632.84;4914304;28;99872;-53
2023/02/01 00:32:29;;;;;;;8.93;1.10;;;12.00;99.90;;;11.84;54.41;101621.19;4915592;28;97319;-55
2023/02/01 00:34:54;;;;;;;3.57;1.83;;;12.10;99.90;;;11.85;55.21;101624.72;4897164;28;97636;-56
2023/02/01 00:37:21;;;;;;;1.37;1.00;;;12.10;99.90;;;11.82;54.87;101620.38;4918032;28;97663;-55
2023/02/01 00:39:47;;;;;;;3.17;1.63;;;12.10;99.90;;;11.77;55.34;101611.66;4912834;28;103661;-56
2023/02/01 00:42:13;;;;;;;3.20;1.37;;;12.10;99.90;;;11.68;54.86;101616.31;4919281;28;97958;-55
2023/02/01 00:44:38;;;;;;;3.17;1.37;;;12.00;99.90;;;11.62;55.25;101617.34;4913053;28;98171;-55
2023/02/01 00:47:04;;;;;;;3.37;1.40;;;11.90;99.90;;;11.54;56.38;101614.88;4918556;28;100384;-54
2023/02/01 00:49:30;;;;;;;3.60;1.07;;;11.90;99.90;;;11.39;56.25;101609.97;4916529;28;103933;-57
2023/02/01 00:51:56;;;;;;;2.37;1.20;;;11.70;99.90;;;11.21;57.12;101607.75;4897555;28;97996;-57
2023/02/01 00:54:22;;;;;;;5.90;1.30;;;11.50;99.90;;;11.25;56.14;101618.22;4917249;28;99208;-55
2023/02/01 00:56:48;;;;;;;3.30;1.53;;;11.50;99.90;;;11.18;56.31;101616.63;4910709;28;99451;-55
2023/02/01 00:59:14;;;;;;;3.00;0.87;;;11.50;99.90;;;11.26;55.50;101603.22;4917265;28;98172;-51
2023/02/01 01:01:40;;;;;;;4.03;1.03;;;11.60;99.90;;;11.18;55.31;101597.28;4912029;28;98117;-57
2023/02/01 01:04:06;;;;;;;4.93;1.10;;;11.60;99.90;;;11.23;55.49;101587.47;4917891;28;97813;-53
2023/02/01 01:06:34;;;;;;;3.73;1.00;;;11.50;99.90;;;11.19;54.22;101583.16;4917365;28;97838;-54
2023/02/01 01:09:04;;;;;;;1.90;1.17;;;11.60;99.90;;;11.08;54.68;101566.69;4912032;28;98996;-52
2023/02/01 01:11:34;;;;;;;3.90;1.33;;;11.40;99.90;;;10.93;54.98;101563.50;4918515;28;97251;-54
2023/02/01 01:14:01;;;;;;;1.43;0.80;;;11.20;99.90;;;10.67;54.37;101557.94;4913396;28;97416;-54
2023/02/01 01:16:30;;;;;;;13.30;0.83;;;11.00;99.90;;;10.48;54.19;101567.16;4901577;28;102661;-57
2023/02/01 01:18:56;;;;;;;3.90;0.97;;;10.80;99.90;;;10.28;54.29;101584.25;4914070;28;99030;-53
2023/02/01 01:21:22;;;;;;;3.37;0.73;;;10.60;99.90;;;10.23;53.46;101591.38;4920346;28;99438;-54
2023/02/01 01:23:48;;;;;;;1.23;0.90;;;10.60;99.90;;;10.21;53.88;101609.00;4897250;28;98387;-57
2023/02/01 01:26:20;;;;;;;7.97;0.90;;;10.60;99.90;;;10.41;54.90;101614.78;4914161;28;97934;-56
2023/02/01 01:28:47;;;;;;;3.93;1.17;;;10.70;99.90;;;10.54;53.51;101617.13;4911391;28;97243;-55
2023/02/01 01:31:15;;;;;;;5.40;1.30;;;10.90;99.90;;;10.63;53.78;101616.97;4924560;28;97892;-56
2023/02/01 01:33:43;;;;;;;0.90;0.40;;;11.00;99.90;;;10.73;52.78;101622.03;4919582;28;97530;-57
2023/02/01 01:36:11;;;;;;;1.97;0.57;;;11.10;99.90;;;10.72;53.11;101622.91;4938850;28;97657;-54
2023/02/01 01:38:39;;;;;;;0.97;0.50;;;11.10;99.90;;;10.58;53.20;101630.25;4926831;28;97155;-60
2023/02/01 01:41:04;;;;;;;1.40;0.63;;;11.00;99.90;;;10.51;53.50;101625.97;4934101;28;97516;-53
2023/02/01 01:44:44;;;;;;;3.97;0.50;;;10.90;99.90;;;10.80;54.75;101628.03;4935670;28;97331;-56
2023/02/01 01:47:10;;;;;;;1.10;0.57;;;11.10;99.90;;;11.01;53.96;101627.56;4841394;28;101883;-54
2023/02/01 01:49:38;;;;;;;3.87;1.30;;;11.40;99.90;;;11.21;52.41;101619.19;4941247;28;98103;-58
2023/02/01 01:52:05;;;;;;;2.50;0.60;;;11.60;99.90;;;11.35;53.40;101613.59;4928357;28;97382;-57
2023/02/01 01:54:49;;;;;;;1.47;0.53;;;11.70;99.90;;;11.51;53.06;101614.97;4922278;28;114107;-53
2023/02/01 01:57:20;;;;;;;3.87;0.90;;;11.80;99.90;;;11.54;52.66;101614.88;4925985;28;101157;-51
2023/02/01 02:00:20;;;;;;;1.13;0.87;;;11.80;99.90;;;11.52;53.04;101606.13;4922892;28;98031;-55
2023/02/01 02:02:50;;;;;;;4.37;0.70;;;11.70;99.90;;;11.46;52.49;101606.28;4914407;28;97472;-57
2023/02/01 02:05:17;;;;;;;5.33;1.00;;;11.70;99.90;;;11.48;50.82;101588.63;4918753;28;97184;-55
2023/02/01 02:07:48;;;;;;;0.40;0.30;;;11.70;99.90;;;11.51;52.18;101592.94;4922240;28;100094;-54
2023/02/01 02:10:15;;;;;;;1.23;0.50;;;11.60;99.90;;;11.57;52.80;101580.47;4922125;28;97068;-55
2023/02/01 02:12:44;;;;;;;1.10;0.80;;;11.70;99.90;;;11.60;52.24;101584.81;4925051;28;96973;-55
2023/02/01 02:15:14;;;;;;;4.57;0.90;;;11.80;99.90;;;11.60;52.05;101585.66;4929871;28;98770;-54
2023/02/01 02:17:48;;;;;;;3.20;0.90;;;11.80;99.90;;;11.59;51.46;101577.78;4936305;28;97772;-55
2023/02/01 02:20:35;;;;;;;2.13;0.73;;;11.80;99.90;;;11.55;51.01;101574.31;4945171;28;97208;-56
2023/02/01 02:23:57;;;;;;;0.90;0.43;;;11.90;99.90;;;11.60;51.82;101577.75;4934985;28;97109;-57
2023/02/01 02:27:01;;;;;;;3.50;0.40;;;11.80;99.90;;;11.74;52.24;101574.75;4936926;28;101487;-57
2023/02/01 02:29:55;;;;;;;3.10;0.87;;;11.90;99.90;;;11.62;50.30;101575.94;4934173;28;103541;-57
2023/02/01 02:32:36;;;;;;;3.33;0.97;;;12.00;99.90;;;11.67;51.96;101573.16;4938798;28;97073;-57
2023/02/01 02:35:13;;;;;;;3.67;0.90;;;12.00;99.90;;;11.76;51.15;101577.34;4929095;28;97552;-55
2023/02/01 02:37:48;;;;;;;2.30;0.80;;;12.10;99.90;;;11.82;51.65;101582.50;4928854;28;97650;-57
2023/02/01 02:40:34;;;;;;;2.50;0.53;;;12.10;99.90;;;11.96;51.55;101584.78;4934725;28;97448;-56
2023/02/01 02:49:43;;;;;;;1.97;0.80;;;12.10;99.90;;;11.86;50.77;101563.91;4918218;28;102053;-54
2023/02/01 02:55:16;;;;;;;1.33;0.40;;;12.00;99.90;;;11.72;51.88;101555.44;4937800;28;97611;-57
2023/02/01 03:06:03;;;;;;;10.07;0.87;;;11.70;99.90;;;11.42;50.69;101551.75;4941234;28;97612;-56
2023/02/01 03:08:31;;;;;;;0.87;0.40;;;11.80;99.90;;;11.51;51.91;101554.19;4938024;28;97145;-55
2023/02/01 03:11:09;;;;;;;2.73;0.97;;;11.80;99.90;;;11.45;51.15;101557.00;4944749;28;98797;-53
2023/02/01 03:13:59;;;;;;;2.97;0.73;;;11.80;99.90;;;11.17;52.26;101550.66;4930245;28;97895;-57
2023/02/01 03:16:42;;;;;;;0.77;0.60;;;11.50;99.90;;;11.14;51.98;101559.50;4921794;28;97386;-55
2023/02/01 03:19:18;;;;;;;0.70;0.50;;;11.50;99.90;;;11.06;52.44;101552.66;4938038;28;96982;-52
2023/02/01 03:21:58;;;;;;;0.87;0.83;;;11.40;99.90;;;10.91;52.93;101557.41;4938147;28;97966;-56
2023/02/01 03:24:50;;;;;;;3.40;1.00;;;11.30;99.90;;;10.93;53.60;101558.22;4946247;28;97608;-53
2023/02/01 03:27:23;;;;;;;3.03;1.00;;;11.20;99.90;;;10.94;52.54;101559.97;4941958;28;97136;-54
2023/02/01 03:30:09;;;;;;;1.83;0.80;;;11.30;99.90;;;10.97;52.41;101564.28;4924740;28;97052;-56
2023/02/01 03:36:06;;;;;;;6.57;1.80;;;11.20;99.90;;;11.07;54.01;101554.41;4937474;28;101625;-56
2023/02/01 03:38:55;;;;;;;2.07;0.87;;;11.20;99.90;;;11.07;53.97;101546.47;4918863;28;100216;-57
2023/02/01 03:41:53;;;;;;;9.63;1.17;;;11.40;99.90;;;11.06;53.19;101548.25;4935496;28;97511;-56
2023/02/01 03:44:41;;;;;;;4.90;1.13;;;11.40;99.90;;;11.17;53.89;101540.09;4919323;28;100487;-57
2023/02/01 03:47:19;;;;;;;1.23;1.00;;;11.40;99.90;;;10.99;54.15;101536.09;4921189;28;100796;-56
2023/02/01 03:50:00;;;;;;;2.37;1.10;;;11.30;99.90;;;11.05;53.95;101527.16;4922070;28;96990;-55
2023/02/01 03:52:39;;;;;;;10.03;1.77;;;11.40;99.90;;;11.28;53.29;101532.75;4918178;28;97482;-55
2023/02/01 03:55:07;;;;;;;3.37;1.17;;;11.60;99.90;;;11.29;52.95;101529.22;4915877;28;102051;-55
2023/02/01 03:57:43;;;;;;;8.33;1.47;;;11.60;99.90;;;11.21;52.17;101531.16;4923837;28;97148;-55
2023/02/01 04:00:29;;;;;;;1.37;1.03;;;11.60;99.90;;;11.37;53.24;101532.53;4936248;28;97868;-55
2023/02/01 04:02:55;;;;;;;1.97;0.90;;;11.60;99.90;;;11.35;53.12;101529.06;4933791;28;100092;-55
2023/02/01 04:05:22;;;;;;;6.93;1.63;;;11.70;99.90;;;11.39;53.52;101528.06;4914456;28;104452;-57
2023/02/01 04:07:48;;;;;;;3.90;1.40;;;11.70;99.90;;;11.40;51.22;101532.44;4937273;28;97074;-57
2023/02/01 04:10:14;;;;;;;5.57;1.00;;;11.70;99.90;;;11.48;52.18;101529.63;4941594;28;97009;-58
2023/02/01 04:12:40;;;;;;;5.73;1.10;;;11.80;99.90;;;11.33;51.15;101536.16;4935529;28;98484;-56
2023/02/01 04:15:07;;;;;;;5.17;1.40;;;11.80;99.90;;;11.18;52.47;101531.25;4938500;28;97125;-56
2023/02/01 04:17:33;;;;;;;3.10;1.63;;;11.60;99.90;;;11.31;52.58;101527.41;4921549;28;97572;-57
2023/02/01 04:19:59;;;;;;;2.53;1.13;;;11.60;99.90;;;11.26;51.43;101534.56;4921159;28;96696;-57
2023/02/01 04:22:25;;;;;;;4.20;0.87;;;11.70;99.90;;;10.94;53.20;101530.06;4943035;28;97739;-55
2023/02/01 04:24:51;;;;;;;1.93;0.80;;;11.30;99.90;;;10.94;52.52;101536.19;4935590;28;98107;-56
2023/02/01 04:27:17;;;;;;;3.47;0.77;;;11.30;99.90;;;10.75;52.68;101521.69;4938939;28;97914;-54
2023/02/01 04:29:44;;;;;;;1.23;0.50;;;11.20;99.90;;;10.77;54.22;101530.44;4937522;28;97551;-54
2023/02/01 04:32:10;;;;;;;2.80;0.50;;;11.10;99.90;;;10.64;52.43;101503.47;4907782;28;97285;-55
2023/02/01 04:34:36;;;;;;;10.17;1.03;;;11.00;99.90;;;10.51;53.39;101507.28;4942128;28;97485;-55
2023/02/01 04:37:02;;;;;;;0.93;0.70;;;11.00;99.90;;;10.62;52.60;101509.69;4934268;28;97091;-51
2023/02/01 04:39:28;;;;;;;4.10;1.13;;;11.00;99.90;;;10.46;54.13;101503.88;4941350;28;97757;-57
2023/02/01 04:41:54;;;;;;;2.57;1.10;;;10.90;99.90;;;10.53;52.60;101484.34;4917909;28;97455;-57
2023/02/01 04:44:20;;;;;;;4.57;0.80;;;10.90;99.90;;;10.57;54.21;101474.63;4936172;28;114515;-56
2023/02/01 04:46:47;;;;;;;4.90;0.90;;;10.90;99.90;;;10.66;52.07;101484.94;4936394;28;97239;-53
2023/02/01 04:49:14;;;;;;;3.50;1.23;;;11.00;99.90;;;10.68;53.37;101491.06;4923755;28;97640;-57
2023/02/01 04:51:41;;;;;;;3.10;0.60;;;10.90;99.90;;;10.64;52.45;101487.63;4932604;28;97007;-56
2023/02/01 04:54:07;;;;;;;4.23;0.90;;;10.90;99.90;;;10.62;53.01;101493.84;4923357;28;98167;-56
2023/02/01 04:56:37;;;;;;;3.33;0.50;;;11.00;99.90;;;10.38;53.51;101495.25;4936356;28;97179;-51
2023/02/01 04:59:03;;;;;;;3.63;1.00;;;10.90;99.90;;;10.48;53.50;101502.06;4933177;28;97464;-54
2023/02/01 05:01:30;;;;;;;2.63;1.07;;;10.90;99.90;;;10.24;53.03;101499.94;4929206;28;97301;-54
2023/02/01 05:03:55;;;;;;;3.73;0.70;;;10.80;99.90;;;10.16;53.52;101500.09;4932244;28;97282;-55
2023/02/01 05:06:22;;;;;;;0.57;0.57;;;10.70;99.90;;;10.35;54.95;101501.47;4936450;28;98380;-54
2023/02/01 05:08:48;;;;;;;2.93;0.73;;;10.70;99.90;;;10.35;53.42;101517.28;4934743;28;103409;-52
2023/02/01 05:13:59;;;;;;;7.13;1.03;;;10.70;99.90;;;10.13;53.41;101523.88;4938681;28;98006;-54
2023/02/01 05:16:25;;;;;;;2.77;0.97;;;10.60;99.90;;;10.11;54.47;101518.63;4941737;28;97162;-55
2023/02/01 05:18:51;;;;;;;2.17;1.00;;;10.60;99.90;;;9.97;55.14;101517.16;4938131;28;97483;-55
2023/02/01 05:21:17;;;;;;;4.03;0.87;;;10.40;99.90;;;9.93;54.64;101518.13;4943987;28;99136;-53
2023/02/01 05:26:28;;;;;;;1.47;0.53;;;10.40;99.90;;;9.87;54.10;101512.97;4938890;28;97736;-57
2023/02/01 05:28:54;;;;;;;0.80;0.33;;;10.30;99.90;;;9.94;54.22;101509.31;4923042;28;99592;-56
2023/02/01 05:31:20;;;;;;;2.10;0.43;;;10.40;99.90;;;9.89;53.73;101516.44;4940015;28;97684;-53
2023/02/01 05:33:46;;;;;;;2.50;0.60;;;10.30;99.90;;;9.99;53.76;101508.34;4930409;28;97181;-55
2023/02/01 05:36:12;;;;;;;2.17;0.67;;;10.40;99.90;;;10.12;52.57;101520.34;4942655;28;99014;-55
2023/02/01 05:38:38;;;;;;;3.10;0.60;;;10.60;99.90;;;10.11;55.21;101517.75;4922142;28;98091;-54
2023/02/01 05:41:04;;;;;;;2.00;0.70;;;10.50;99.90;;;9.81;53.68;101530.63;4920091;28;97421;-52
2023/02/01 05:43:30;;;;;;;9.20;1.50;;;10.40;99.90;;;9.77;53.48;101518.41;4940715;28;97287;-51
2023/02/01 05:45:56;;;;;;;8.20;1.33;;;10.30;99.90;;;9.71;53.77;101521.16;4934302;28;111551;-55
2023/02/01 05:48:21;;;;;;;1.80;0.50;;;10.20;99.90;;;9.71;53.79;101513.25;4932083;28;106686;-54
2023/02/01 05:50:47;;;;;;;1.40;0.57;;;10.20;99.90;;;9.66;54.44;101514.22;4936803;28;101913;-54
2023/02/01 05:53:13;;;;;;;2.83;1.03;;;10.10;99.90;;;9.49;54.48;101517.16;4938155;28;102550;-53
2023/02/01 05:55:39;;;;;;;6.27;0.90;;;10.00;99.90;;;9.57;54.66;101523.19;4936744;28;97637;-54
2023/02/01 05:58:05;;;;;;;5.80;0.60;;;10.00;99.90;;;9.42;54.57;101521.69;4940880;28;97216;-55
2023/02/01 06:00:31;;;;;;;6.70;1.13;;;9.90;99.90;;;9.38;54.94;101527.00;4943460;28;97388;-56
2023/02/01 06:02:57;;;;;;;2.70;0.77;;;9.90;99.90;;;9.02;55.45;101513.56;4943133;28;99176;-55
2023/02/01 06:05:23;;;;;;;2.10;0.30;;;9.70;99.90;;;9.06;55.43;101528.41;4939167;28;97274;-56
2023/02/01 06:07:49;;;;;;;3.37;0.60;;;9.60;99.90;;;9.05;55.81;101529.31;4938278;28;97291;-54
2023/02/01 06:10:17;;;;;;;1.27;0.60;;;9.60;99.90;;;9.12;55.65;101523.06;4939655;28;96734;-56
2023/02/01 06:12:44;;;;;;;0.47;0.47;;;9.60;99.90;;;8.92;55.85;101511.97;4917998;28;99461;-55
2023/02/01 06:15:11;;;;;;;0.93;0.50;;;9.50;99.90;;;9.05;55.56;101513.50;4941846;28;98962;-54
2023/02/01 06:17:39;;;;;;;6.40;0.70;;;9.60;99.90;;;9.06;55.71;101512.63;4920302;28;97348;-53
2023/02/01 06:20:06;;;;;;;4.47;1.23;;;9.50;99.90;;;9.05;55.38;101521.41;4937487;28;99522;-55
2023/02/01 06:22:33;;;;;;;4.07;0.70;;;9.60;99.90;;;8.93;55.78;101521.59;4944108;28;98202;-57
2023/02/01 06:24:59;;;;;;;4.63;0.57;;;9.40;99.90;;;8.82;56.19;101521.75;4923642;28;97350;-50
2023/02/01 06:27:25;;;;;;;3.70;0.87;;;9.30;99.90;;;8.77;56.54;101520.09;4925422;28;97372;-58
2023/02/01 06:29:51;;;;;;;2.57;1.40;;;9.30;99.90;;;8.69;56.66;101522.84;4938886;28;100019;-54
2023/02/01 06:32:17;;;;;;;2.00;0.60;;;9.20;99.90;;;8.57;56.92;101529.13;4925622;28;97780;-53
2023/02/01 06:34:43;;;;;;;2.67;0.93;;;9.20;99.90;;;8.53;57.03;101527.41;4936835;28;102715;-56
2023/02/01 06:37:11;;;;;;;0.83;0.60;;;9.10;99.90;;;8.69;56.64;101528.09;4938159;28;97315;-56
2023/02/01 06:39:37;;;;;;;3.23;0.73;;;9.20;99.90;;;8.84;56.65;101530.50;4936622;28;97249;-55
2023/02/01 06:42:03;;;;;;;3.40;1.03;;;9.30;99.90;;;8.93;55.95;101532.97;4937258;28;102376;-55
2023/02/01 06:44:29;;;;;;;1.27;0.47;;;9.50;99.90;;;9.00;56.10;101533.78;4946921;28;97882;-56
2023/02/01 06:46:55;;;;;;;0.50;0.50;;;9.50;99.90;;;9.13;56.55;101547.63;4939419;28;102943;-54
2023/02/01 06:49:21;;;;;;;6.53;0.77;;;9.60;99.90;;;9.19;56.32;101545.75;4941098;28;97649;-54
2023/02/01 06:51:47;;;;;;;1.07;0.43;;;9.70;99.90;;;9.02;56.99;101552.19;4942830;28;97090;-55
2023/02/01 06:54:13;;;;;;;2.37;0.70;;;9.50;99.90;;;9.04;56.23;101550.38;4944617;28;97798;-54
2023/02/01 06:56:39;;;;;;;1.20;0.37;;;9.60;99.90;;;8.89;56.64;101544.47;4942239;28;102407;-54
2023/02/01 06:59:06;;;;;;;1.33;0.60;;;9.50;99.90;;;9.13;56.78;101540.59;4940127;28;97028;-51
2023/02/01 07:01:32;;;;;;;0.87;0.47;;;9.60;99.90;;;9.44;55.45;101545.34;4943592;28;100061;-50
2023/02/01 07:03:58;;;;;;;4.53;1.67;;;9.90;99.90;;;9.27;55.37;101536.88;4942692;28;97268;-52
2023/02/01 07:06:23;;;;;;;6.33;1.03;;;9.80;99.90;;;9.41;54.61;101541.03;4946861;28;112548;-54
2023/02/01 07:08:49;;;;;;;3.33;1.33;;;9.90;99.90;;;9.37;55.08;101535.81;4936964;28;96909;-55
2023/02/01 07:11:17;;;;;;;4.23;1.00;;;10.00;99.90;;;9.38;55.46;101545.44;4941658;28;97483;-53
2023/02/01 07:13:43;;;;;;;5.17;0.97;;;9.90;99.90;;;9.59;54.12;101550.38;4921016;28;98769;-55
2023/02/01 07:16:13;;;;;;;3.63;0.77;;;10.00;99.90;;;9.75;54.09;101551.81;4946621;28;97281;-57
2023/02/01 07:18:39;;;;;;;1.53;0.63;;;10.20;99.90;;;10.05;55.05;101554.78;4919571;28;97415;-59
2023/02/01 07:21:05;;;;;;;9.90;1.33;;;10.50;99.90;;;10.04;55.60;101563.59;4945038;28;97457;-55
2023/02/01 07:23:31;;;;;;;7.17;0.80;;;10.40;99.90;;;10.09;53.07;101567.00;4940840;28;97510;-53
2023/02/01 07:26:00;;;;;;;5.33;1.20;;;10.60;99.90;;;10.10;55.04;101568.75;4934890;28;97284;-54
2023/02/01 07:28:28;;;;;;;1.60;0.67;;;10.50;99.90;;;9.97;54.73;101577.78;4937277;28;98506;-53
2023/02/01 07:30:54;;;;;;;4.13;1.07;;;10.40;99.90;;;10.19;53.58;101563.31;4933081;28;97040;-56
2023/02/01 07:33:22;;;;;;;5.50;0.93;;;10.60;99.90;;;10.24;53.11;101577.28;4927615;28;110000;-56
2023/02/01 07:35:50;;;;;;;6.77;0.70;;;10.70;99.90;;;10.31;54.57;101573.63;4935895;28;97365;-56
2023/02/01 07:38:17;;;;;;;2.20;0.77;;;10.70;99.90;;;10.19;53.55;101573.84;4942937;28;97330;-55
2023/02/01 07:40:43;;;;;;;2.13;1.00;;;10.70;99.90;;;10.39;54.12;101576.09;4915704;28;104625;-56
2023/02/01 07:43:09;;;;;;;0.93;0.40;;;10.70;99.90;;;10.36;53.13;101582.31;4922243;28;97677;-56
2023/02/01 07:45:36;;;;;;;0.50;0.50;;;10.80;99.90;;;10.28;53.27;101578.97;4922141;28;97274;-57
2023/02/01 07:48:03;;;;;;;1.97;0.70;;;10.70;99.90;;;10.34;52.46;101577.97;4912653;28;97270;-57
2023/02/01 07:50:29;;;;;;;2.60;0.80;;;10.80;99.90;;;10.35;53.45;101579.72;4936485;28;97700;-53
2023/02/01 07:52:55;;;;;;;4.63;0.63;;;10.80;99.90;;;10.29;53.08;101575.44;4937131;28;97432;-56
2023/02/01 07:55:21;;;;;;;3.57;0.70;;;10.80;99.90;;;10.31;53.23;101578.91;4921579;28;97881;-56
2023/02/01 07:57:47;;;;;;;3.80;1.07;;;10.70;99.90;;;10.38;53.02;101575.25;4931593;28;98751;-55
2023/02/01 08:02:59;;;;;;;1.40;0.70;;;10.60;99.90;;;9.76;55.24;101587.81;4926393;28;97283;-57
2023/02/01 08:05:26;;;;;;;2.60;1.10;;;10.30;99.90;;;10.06;54.45;101594.28;4942398;28;98873;-55
2023/02/01 08:07:52;;;;;;;6.87;1.43;;;10.50;99.90;;;9.98;54.73;101595.31;4914819;28;98040;-56
2023/02/01 08:10:19;;;;;;;3.23;0.80;;;10.50;99.90;;;10.18;54.81;101579.16;4939018;28;99133;-57
2023/02/01 08:12:48;;;;;;;2.10;1.00;;;10.60;99.90;;;10.17;53.04;101578.28;4911879;28;97831;-52
2023/02/01 08:15:17;;;;;;;4.03;0.77;;;10.80;99.90;;;10.39;53.68;101590.16;4936189;28;97220;-55
2023/02/01 08:17:51;;;;;;;1.83;0.80;;;10.80;99.90;;;10.30;53.90;101582.47;4940970;28;97202;-56
2023/02/01 08:20:18;;;;;;;8.50;1.37;;;10.80;99.90;;;10.46;53.43;101582.16;4940390;28;97934;-52
2023/02/01 08:22:44;;;;;;;1.67;0.67;;;10.90;99.90;;;9.88;53.96;101596.41;4933134;28;97390;-56
2023/02/01 08:25:11;;;;;;;1.60;1.00;;;10.60;99.90;;;9.71;55.14;101586.16;4938486;28;97107;-56
2023/02/01 08:27:37;;;;;;;4.00;0.90;;;10.30;99.90;;;9.67;54.73;101587.97;4943209;28;97318;-56
2023/02/01 08:30:06;;;;;;;1.47;0.33;;;10.20;99.90;;;9.81;55.21;101593.00;4933951;28;103357;-56
2023/02/01 08:32:34;;;;;;;6.57;1.53;;;10.30;99.90;;;9.51;55.22;101594.38;4941803;28;97382;-57
2023/02/01 08:34:59;;;;;;;2.80;0.57;;;10.10;99.90;;;9.57;55.85;101602.22;4921486;28;97078;-53
2023/02/01 08:37:25;;;;;;;6.53;1.03;;;10.20;99.90;;;9.55;55.38;101593.47;4939562;28;99805;-56
2023/02/01 08:39:51;;;;;;;1.47;0.87;;;10.10;99.90;;;9.82;56.07;101600.00;4943054;28;97795;-56
2023/02/01 08:45:03;;;;;;;0.73;0.67;;;10.40;99.90;;;9.96;54.44;101610.31;4941957;28;97178;-52
2023/02/01 08:47:30;;;;;;;6.73;0.63;;;10.50;99.90;;;9.92;55.23;101611.25;4942656;28;97542;-56
2023/02/01 08:49:56;;;;;;;6.33;1.20;;;10.40;99.90;;;9.70;54.33;101616.91;4920690;28;99889;-56
2023/02/01 08:52:22;;;;;;;4.10;0.60;;;10.20;99.90;;;10.04;53.69;101622.47;4944238;28;97063;-56
2023/02/01 08:54:48;;;;;;;1.03;0.80;;;10.50;99.90;;;10.13;54.87;101624.06;4943784;28;98928;-52
2023/02/01 08:57:14;;;;;;;2.43;0.57;;;10.50;99.90;;;10.20;54.87;101632.72;4926097;28;97625;-57
2023/02/01 08:59:40;;;;;;;1.77;0.53;;;10.60;99.90;;;10.24;53.49;101630.03;4943768;28;97395;-55
2023/02/01 09:02:09;;;;;;;4.43;0.50;;;10.80;99.90;;;10.27;54.06;101630.00;4941158;28;97335;-54
2023/02/01 09:04:35;;;;;;;6.10;1.40;;;10.70;99.90;;;10.16;53.32;101631.06;4942398;28;98020;-54
2023/02/01 09:07:01;;;;;;;6.67;0.77;;;10.70;99.90;;;10.13;53.71;101626.72;4937072;28;98138;-55
2023/02/01 09:09:28;;;;;;;1.27;0.90;;;10.60;99.90;;;10.29;53.37;101617.63;4942301;28;99311;-56
2023/02/01 09:11:54;;;;;;;0.60;0.40;;;10.70;99.90;;;10.49;53.56;101617.22;4940130;28;98500;-54
2023/02/01 09:14:20;;;;;;;3.40;0.87;;;10.90;99.90;;;10.31;52.79;101623.75;4940937;28;97069;-55
2023/02/01 09:16:45;;;;;;;4.97;1.00;;;10.80;99.90;;;10.04;54.67;101605.78;4938906;28;97495;-55
2023/02/01 09:19:11;;;;;;;2.97;0.73;;;10.50;99.90;;;10.25;54.78;101608.03;4923614;28;97507;-54
2023/02/01 09:21:37;;;;;;;2.17;0.90;;;10.60;99.90;;;10.42;52.79;101619.13;4939993;28;97278;-56
2023/02/01 09:24:03;;;;;;;4.43;0.87;;;10.90;99.90;;;10.36;53.56;101616.59;4938418;28;97472;-55
2023/02/01 09:26:29;;;;;;;0.60;0.57;;;10.90;99.90;;;10.31;53.15;101612.34;4945081;28;96871;-50
2023/02/01 09:28:55;;;;;;;4.00;1.23;;;10.80;99.90;;;10.35;52.81;101617.50;4940420;28;110574;-56
2023/02/01 09:31:21;;;;;;;6.93;0.87;;;10.90;99.90;;;10.46;53.16;101622.59;4939185;28;111940;-56
2023/02/01 09:33:47;;;;;;;3.10;0.77;;;10.80;99.90;;;10.28;53.86;101615.91;4944147;28;97090;-55
2023/02/01 09:36:12;;;;;;;2.03;1.00;;;10.80;99.90;;;10.22;54.15;101621.28;4944898;28;96974;-54
2023/02/01 09:38:38;;;;;;;3.37;1.00;;;10.70;99.90;;;9.98;53.97;101626.94;4941494;28;100995;-60
2023/02/01 09:41:40;;;;;;;1.17;1.03;;;10.50;99.90;;;9.93;54.62;101624.41;4945096;28;101904;-54
2023/02/01 09:44:59;;;;;;;5.53;1.40;;;10.50;99.90;;;9.99;55.25;101628.72;4940243;28;97198;-56
2023/02/01 09:47:26;;;;;;;3.80;0.53;;;10.40;99.90;;;10.12;55.40;101614.41;4921170;28;97514;-57
2023/02/01 09:50:05;;;;;;;2.80;0.67;;;10.50;99.90;;;10.52;54.56;101597.84;4947502;28;98178;-57
2023/02/01 09:53:05;;;;;;;7.40;1.33;;;10.80;99.90;;;10.37;54.13;101605.16;4918621;28;98594;-52
2023/02/01 09:55:48;;;;;;;2.03;0.47;;;10.90;99.90;;;10.12;54.87;101617.03;4935824;28;97440;-58
2023/02/01 09:58:33;;;;;;;4.77;1.10;;;10.60;99.90;;;10.20;54.06;101612.50;4924810;28;100205;-56
2023/02/01 10:01:03;;;;;;;2.10;1.17;;;10.70;99.90;;;10.24;54.74;101614.19;4903173;28;97770;-56
2023/02/01 10:03:33;;;;;;;1.40;0.40;;;10.70;99.90;;;10.32;53.23;101609.66;4923659;28;97014;-57
2023/02/01 10:06:13;;;;;;;3.50;1.23;;;10.90;99.90;;;10.37;54.23;101605.16;4932078;28;97112;-55
2023/02/01 10:09:12;;;;;;;5.30;0.70;;;11.00;99.90;;;10.05;53.61;101604.88;4933232;28;97516;-53
2023/02/01 10:12:21;;;;;;;4.53;0.53;;;10.80;99.90;;;10.14;54.89;101602.06;4916804;28;103515;-60
2023/02/01 10:15:37;;;;;;;7.30;1.23;;;10.70;99.90;;;9.88;54.83;101604.31;4934019;28;101115;-53
2023/02/01 10:18:12;;;;;;;1.87;0.63;;;10.50;99.90;;;9.77;54.94;101594.81;4945200;28;97387;-55
2023/02/01 10:21:30;;;;;;;7.07;0.90;;;10.40;99.90;;;9.92;56.06;101588.41;4940122;28;97300;-53
2023/02/01 10:24:40;;;;;;;0.97;0.70;;;10.40;99.90;;;9.80;54.89;101578.94;4881412;28;100335;-55
2023/02/01 10:27:21;;;;;;;0.20;0.20;;;10.40;99.90;;;9.96;54.76;101590.09;4914577;28;100885;-56
2023/02/01 10:30:03;;;;;;;3.47;1.00;;;10.50;99.90;;;10.01;54.68;101605.84;4914707;28;98819;-56
2023/02/01 10:32:36;;;;;;;4.37;0.80;;;10.60;99.90;;;9.84;54.81;101588.56;4917064;28;97852;-57
2023/02/01 10:35:16;;;;;;;2.00;0.87;;;10.50;99.90;;;9.75;55.59;101593.97;4897277;28;98770;-58
2023/02/01 10:37:45;;;;;;;1.77;1.13;;;10.30;99.90;;;9.71;55.41;101592.31;4923193;28;98154;-57
2023/02/01 10:40:23;;;;;;;5.93;0.60;;;10.40;99.90;;;9.57;56.27;101583.78;4932606;28;97378;-56
2023/02/01 10:43:01;;;;;;;3.20;0.87;;;10.20;99.90;;;9.79;55.94;101581.63;4940437;28;97541;-56
2023/02/01 10:45:33;;;;;;;1.23;1.13;;;10.30;99.90;;;10.13;55.71;101574.84;4926838;28;97184;-55
2023/02/01 10:48:02;;;;;;;2.33;0.97;;;10.60;99.90;;;10.16;54.73;101568.63;4932274;28;97709;-55
2023/02/01 10:50:44;;;;;;;1.93;0.57;;;10.70;99.90;;;10.33;54.60;101576.25;4946179;28;98951;-56
2023/02/01 10:53:32;;;;;;;6.97;1.17;;;10.90;99.90;;;10.19;54.35;101568.56;4919576;28;97533;-57
2023/02/01 10:56:06;;;;;;;1.73;0.93;;;10.90;99.90;;;9.79;55.36;101576.34;4935481;28;97783;-56
2023/02/01 10:58:32;;;;;;;7.77;1.03;;;10.60;99.90;;;9.90;55.34;101578.81;4945099;28;96981;-55
2023/02/01 11:01:06;;;;;;;1.27;0.90;;;10.50;99.90;;;10.04;55.06;101574.13;4905993;28;96958;-56